createdAt,value
2023-03-18T00:00:12.402Z,9.79
2023-03-18T00:01:13.419Z,9.87
2023-03-18T00:02:12.421Z,9.77
2023-03-18T00:03:12.395Z,9.89
2023-03-18T00:04:12.389Z,9.76
2023-03-18T00:05:12.383Z,9.83
2023-03-18T00:06:12.370Z,9.72
2023-03-18T00:07:13.393Z,9.79
2023-03-18T00:08:12.370Z,9.86
2023-03-18T00:09:12.378Z,9.74
2023-03-18T00:10:12.386Z,9.73
2023-03-18T00:11:12.354Z,9.77
2023-03-18T00:12:12.368Z,9.77
2023-03-18T00:13:13.417Z,9.72
2023-03-18T00:14:12.331Z,9.72
2023-03-18T00:15:12.331Z,9.69
2023-03-18T00:16:12.360Z,9.76
2023-03-18T00:17:12.326Z,9.80
2023-03-18T00:18:12.325Z,9.68
2023-03-18T00:19:13.324Z,9.74
2023-03-18T00:20:12.320Z,9.76
2023-03-18T00:21:12.344Z,9.73
2023-03-18T00:22:12.296Z,9.74
2023-03-18T00:23:12.294Z,9.77
2023-03-18T00:24:12.286Z,9.72
2023-03-18T00:25:13.289Z,9.72
2023-03-18T00:26:12.296Z,9.72
2023-03-18T00:27:12.272Z,9.77
2023-03-18T00:28:12.276Z,9.77
2023-03-18T00:29:12.283Z,9.73
2023-03-18T00:30:12.328Z,9.76
2023-03-18T00:31:13.313Z,9.82
2023-03-18T00:32:12.278Z,9.79
2023-03-18T00:33:12.368Z,9.76
2023-03-18T00:34:12.666Z,9.64
2023-03-18T00:35:12.259Z,9.79
2023-03-18T00:36:12.249Z,9.64
2023-03-18T00:37:13.230Z,9.72
2023-03-18T00:38:12.236Z,9.76
2023-03-18T00:39:12.234Z,9.66
2023-03-18T00:40:12.226Z,9.73
2023-03-18T00:41:12.198Z,9.66
2023-03-18T00:42:12.237Z,9.74
2023-03-18T00:43:13.206Z,9.77
2023-03-18T00:44:12.190Z,9.77
2023-03-18T00:45:12.276Z,9.69
2023-03-18T00:46:12.174Z,9.74
2023-03-18T00:47:12.170Z,9.74
2023-03-18T00:48:12.183Z,9.69
2023-03-18T00:49:13.159Z,9.65
2023-03-18T00:50:12.145Z,9.73
2023-03-18T00:51:12.184Z,9.62
2023-03-18T00:52:12.158Z,9.61
2023-03-18T00:53:12.139Z,9.65
2023-03-18T00:54:12.129Z,9.68
2023-03-18T00:55:13.161Z,9.68
2023-03-18T00:56:12.136Z,9.64
2023-03-18T00:57:12.119Z,9.68
2023-03-18T00:58:12.108Z,9.64
2023-03-18T00:59:12.129Z,9.62
2023-03-18T01:00:12.088Z,9.62
2023-03-18T01:01:13.277Z,9.56
2023-03-18T01:02:12.158Z,9.56
2023-03-18T01:03:12.077Z,9.59
2023-03-18T01:04:12.064Z,9.51
2023-03-18T01:05:12.059Z,9.54
2023-03-18T01:06:12.064Z,9.51
2023-03-18T01:07:13.065Z,9.51
2023-03-18T01:08:12.043Z,9.46
2023-03-18T01:09:12.065Z,9.50
2023-03-18T01:10:12.075Z,9.51
2023-03-18T01:11:12.042Z,9.58
2023-03-18T01:12:12.055Z,9.51
2023-03-18T01:13:13.071Z,9.50
2023-03-18T01:14:12.019Z,9.48
2023-03-18T01:15:12.029Z,9.56
2023-03-18T01:16:12.030Z,9.55
2023-03-18T01:17:12.009Z,9.51
2023-03-18T01:18:12.035Z,9.58
2023-03-18T01:19:12.997Z,9.50
2023-03-18T01:20:11.983Z,9.50
2023-03-18T01:21:12.019Z,9.51
2023-03-18T01:22:11.982Z,9.46
2023-03-18T01:23:11.972Z,9.43
2023-03-18T01:24:11.965Z,9.44
2023-03-18T01:25:12.970Z,9.43
2023-03-18T01:26:11.947Z,9.46
2023-03-18T01:27:11.972Z,9.44
2023-03-18T01:28:12.005Z,9.47
2023-03-18T01:29:12.003Z,9.47
2023-03-18T01:30:11.945Z,9.51
2023-03-18T01:31:12.942Z,9.47
2023-03-18T01:32:11.920Z,9.54
2023-03-18T01:33:11.920Z,9.47
2023-03-18T01:34:11.913Z,9.48
2023-03-18T01:35:11.910Z,9.50
2023-03-18T01:36:11.949Z,9.47
2023-03-18T01:37:12.929Z,9.46
2023-03-18T01:38:11.886Z,9.51
2023-03-18T01:39:11.899Z,9.39
2023-03-18T01:40:11.877Z,9.40
2023-03-18T01:41:11.877Z,9.43
2023-03-18T01:42:11.871Z,9.44
2023-03-18T01:43:12.870Z,9.44
2023-03-18T01:44:11.860Z,9.41
2023-03-18T01:45:11.856Z,9.51
2023-03-18T01:46:11.858Z,9.44
2023-03-18T01:47:11.849Z,9.39
2023-03-18T01:48:11.840Z,9.48
2023-03-18T01:49:12.840Z,9.44
2023-03-18T01:50:11.820Z,9.44
2023-03-18T01:51:11.808Z,9.51
2023-03-18T01:52:11.803Z,9.44
2023-03-18T01:53:11.795Z,9.47
2023-03-18T01:54:11.793Z,9.47
2023-03-18T01:55:12.810Z,9.47
2023-03-18T01:56:11.782Z,9.39
2023-03-18T01:57:11.778Z,9.50
2023-03-18T01:58:11.779Z,9.54
2023-03-18T01:59:11.789Z,9.51
2023-03-18T02:00:11.804Z,9.50
2023-03-18T02:01:12.814Z,9.47
2023-03-18T02:02:11.820Z,9.46
2023-03-18T02:03:11.765Z,9.50
2023-03-18T02:04:11.770Z,9.50
2023-03-18T02:05:11.786Z,9.40
2023-03-18T02:06:11.724Z,9.46
2023-03-18T02:07:12.744Z,9.46
2023-03-18T02:08:11.714Z,9.51
2023-03-18T02:09:11.748Z,9.46
2023-03-18T02:10:11.738Z,9.47
2023-03-18T02:11:11.764Z,9.51
2023-03-18T02:12:11.707Z,9.47
2023-03-18T02:13:12.703Z,9.50
2023-03-18T02:14:11.682Z,9.50
2023-03-18T02:15:11.723Z,9.51
2023-03-18T02:16:11.714Z,9.44
2023-03-18T02:17:11.683Z,9.54
2023-03-18T02:18:11.662Z,9.51
2023-03-18T02:19:12.674Z,9.47
2023-03-18T02:20:11.654Z,9.47
2023-03-18T02:21:11.709Z,9.41
2023-03-18T02:22:11.649Z,9.44
2023-03-18T02:23:11.642Z,9.51
2023-03-18T02:24:11.639Z,9.47
2023-03-18T02:25:12.661Z,9.47
2023-03-18T02:26:11.648Z,9.40
2023-03-18T02:27:11.629Z,9.39
2023-03-18T02:28:11.623Z,9.43
2023-03-18T02:29:11.633Z,9.44
2023-03-18T02:30:11.630Z,9.34
2023-03-18T02:31:12.668Z,9.41
2023-03-18T02:32:11.601Z,9.36
2023-03-18T02:33:11.619Z,9.37
2023-03-18T02:34:11.586Z,9.36
2023-03-18T02:35:11.584Z,9.32
2023-03-18T02:36:11.571Z,9.34
2023-03-18T02:37:12.577Z,9.41
2023-03-18T02:38:11.564Z,9.37
2023-03-18T02:39:11.547Z,9.44
2023-03-18T02:40:11.545Z,9.39
2023-03-18T02:41:11.537Z,9.40
2023-03-18T02:42:11.556Z,9.41
2023-03-18T02:43:12.553Z,9.44
2023-03-18T02:44:11.537Z,9.39
2023-03-18T02:45:11.550Z,9.39
2023-03-18T02:46:11.576Z,9.31
2023-03-18T02:47:11.516Z,9.40
2023-03-18T02:48:11.497Z,9.31
2023-03-18T02:49:12.515Z,9.37
2023-03-18T02:50:11.498Z,9.36
2023-03-18T02:51:11.494Z,9.37
2023-03-18T02:52:11.483Z,9.32
2023-03-18T02:53:11.474Z,9.28
2023-03-18T02:54:11.468Z,9.31
2023-03-18T02:55:12.480Z,9.31
2023-03-18T02:56:11.457Z,9.28
2023-03-18T02:57:11.453Z,9.36
2023-03-18T02:58:11.456Z,9.29
2023-03-18T02:59:11.458Z,9.29
2023-03-18T03:00:11.436Z,9.31
2023-03-18T03:01:12.535Z,9.36
2023-03-18T03:02:11.471Z,9.28
2023-03-18T03:03:11.565Z,9.28
2023-03-18T03:04:11.413Z,9.29
2023-03-18T03:05:11.404Z,9.36
2023-03-18T03:06:11.413Z,9.31
2023-03-18T03:07:12.421Z,9.29
2023-03-18T03:08:11.398Z,9.31
2023-03-18T03:09:11.390Z,9.29
2023-03-18T03:10:11.376Z,9.29
2023-03-18T03:11:11.375Z,9.32
2023-03-18T03:12:11.365Z,9.32
2023-03-18T03:13:12.394Z,9.26
2023-03-18T03:14:11.368Z,9.34
2023-03-18T03:15:11.357Z,9.29
2023-03-18T03:16:11.412Z,9.26
2023-03-18T03:17:11.342Z,9.32
2023-03-18T03:18:11.341Z,9.29
2023-03-18T03:19:12.343Z,9.31
2023-03-18T03:20:11.342Z,9.32
2023-03-18T03:21:11.316Z,9.37
2023-03-18T03:22:11.335Z,9.39
2023-03-18T03:23:11.313Z,9.36
2023-03-18T03:24:11.320Z,9.39
2023-03-18T03:25:12.314Z,9.39
2023-03-18T03:26:11.304Z,9.31
2023-03-18T03:27:11.312Z,9.39
2023-03-18T03:28:11.311Z,9.41
2023-03-18T03:29:11.269Z,9.37
2023-03-18T03:30:11.275Z,9.46
2023-03-18T03:31:12.314Z,9.39
2023-03-18T03:32:11.261Z,9.43
2023-03-18T03:33:11.263Z,9.44
2023-03-18T03:34:11.252Z,9.44
2023-03-18T03:35:11.263Z,9.44
2023-03-18T03:36:11.278Z,9.41
2023-03-18T03:37:12.245Z,9.47
2023-03-18T03:38:11.234Z,9.47
2023-03-18T03:39:11.248Z,9.54
2023-03-18T03:40:11.217Z,9.44
2023-03-18T03:41:11.320Z,9.44
2023-03-18T03:42:11.208Z,9.54
2023-03-18T03:43:12.209Z,9.44
2023-03-18T03:44:11.203Z,9.50
2023-03-18T03:45:11.199Z,9.39
2023-03-18T03:46:11.266Z,9.36
2023-03-18T03:47:11.189Z,9.39
2023-03-18T03:48:11.193Z,9.39
2023-03-18T03:49:12.180Z,9.41
2023-03-18T03:50:11.163Z,9.37
2023-03-18T03:51:11.193Z,9.41
2023-03-18T03:52:11.166Z,9.41
2023-03-18T03:53:11.170Z,9.36
2023-03-18T03:54:11.139Z,9.36
2023-03-18T03:55:12.148Z,9.25
2023-03-18T03:56:11.145Z,9.29
2023-03-18T03:57:11.121Z,9.22
2023-03-18T03:58:11.120Z,9.22
2023-03-18T03:59:11.112Z,9.26
2023-03-18T04:00:11.130Z,9.29
2023-03-18T04:01:12.111Z,9.26
2023-03-18T04:02:11.092Z,9.26
2023-03-18T04:03:11.099Z,9.28
2023-03-18T04:04:11.136Z,9.32
2023-03-18T04:05:11.096Z,9.39
2023-03-18T04:06:11.085Z,9.37
2023-03-18T04:07:12.085Z,9.36
2023-03-18T04:08:11.064Z,9.37
2023-03-18T04:09:11.052Z,9.32
2023-03-18T04:10:11.058Z,9.37
2023-03-18T04:11:11.086Z,9.37
2023-03-18T04:12:11.047Z,9.39
2023-03-18T04:13:12.052Z,9.39
2023-03-18T04:14:11.037Z,9.43
2023-03-18T04:15:11.087Z,9.34
2023-03-18T04:16:11.056Z,9.39
2023-03-18T04:17:11.053Z,9.31
2023-03-18T04:18:11.012Z,9.37
2023-03-18T04:19:12.038Z,9.39
2023-03-18T04:20:10.999Z,9.39
2023-03-18T04:21:11.019Z,9.37
2023-03-18T04:22:10.994Z,9.34
2023-03-18T04:23:11.005Z,9.41
2023-03-18T04:24:11.010Z,9.39
2023-03-18T04:25:11.982Z,9.39
2023-03-18T04:26:10.969Z,9.34
2023-03-18T04:27:10.974Z,9.40
2023-03-18T04:28:10.962Z,9.37
2023-03-18T04:29:10.943Z,9.41
2023-03-18T04:30:10.965Z,9.32
2023-03-18T04:31:11.998Z,9.43
2023-03-18T04:32:10.936Z,9.37
2023-03-18T04:33:11.109Z,9.40
2023-03-18T04:34:10.936Z,9.36
2023-03-18T04:35:10.916Z,9.41
2023-03-18T04:36:11.000Z,9.40
2023-03-18T04:37:11.925Z,9.41
2023-03-18T04:38:10.902Z,9.36
2023-03-18T04:39:10.924Z,9.46
2023-03-18T04:40:10.892Z,9.39
2023-03-18T04:41:10.872Z,9.43
2023-03-18T04:42:10.875Z,9.46
2023-03-18T04:43:11.884Z,9.43
2023-03-18T04:44:10.873Z,9.39
2023-03-18T04:45:10.858Z,9.40
2023-03-18T04:46:10.927Z,9.47
2023-03-18T04:47:10.849Z,9.46
2023-03-18T04:48:10.844Z,9.43
2023-03-18T04:49:11.845Z,9.39
2023-03-18T04:50:10.833Z,9.40
2023-03-18T04:51:10.820Z,9.46
2023-03-18T04:52:10.813Z,9.40
2023-03-18T04:53:10.807Z,9.34
2023-03-18T04:54:10.811Z,9.40
2023-03-18T04:55:11.817Z,9.36
2023-03-18T04:56:10.802Z,9.47
2023-03-18T04:57:10.779Z,9.46
2023-03-18T04:58:10.784Z,9.50
2023-03-18T04:59:10.794Z,9.47
2023-03-18T05:00:11.556Z,9.41
2023-03-18T05:01:11.851Z,9.54
2023-03-18T05:02:10.789Z,9.50
2023-03-18T05:03:10.787Z,9.50
2023-03-18T05:04:10.880Z,9.50
2023-03-18T05:05:10.763Z,9.51
2023-03-18T05:06:10.735Z,9.47
2023-03-18T05:07:11.763Z,9.47
2023-03-18T05:08:10.738Z,9.46
2023-03-18T05:09:10.719Z,9.47
2023-03-18T05:10:10.750Z,9.51
2023-03-18T05:11:10.932Z,9.50
2023-03-18T05:12:10.713Z,9.50
2023-03-18T05:13:11.704Z,9.48
2023-03-18T05:14:10.695Z,9.50
2023-03-18T05:15:12.034Z,9.47
2023-03-18T05:16:10.704Z,9.51
2023-03-18T05:17:10.684Z,9.50
2023-03-18T05:18:10.692Z,9.48
2023-03-18T05:19:11.676Z,9.50
2023-03-18T05:20:10.682Z,9.55
2023-03-18T05:21:10.657Z,9.51
2023-03-18T05:22:10.699Z,9.58
2023-03-18T05:23:10.658Z,9.61
2023-03-18T05:24:10.661Z,9.54
2023-03-18T05:25:11.690Z,9.58
2023-03-18T05:26:10.641Z,9.51
2023-03-18T05:27:10.711Z,9.54
2023-03-18T05:28:11.366Z,9.48
2023-03-18T05:29:10.612Z,9.47
2023-03-18T05:30:10.606Z,9.51
2023-03-18T05:31:11.613Z,9.48
2023-03-18T05:32:10.592Z,9.48
2023-03-18T05:33:10.697Z,9.50
2023-03-18T05:34:10.602Z,9.48
2023-03-18T05:35:10.607Z,9.54
2023-03-18T05:36:10.656Z,9.47
2023-03-18T05:37:11.579Z,9.43
2023-03-18T05:38:10.567Z,9.54
2023-03-18T05:39:10.555Z,9.46
2023-03-18T05:40:10.569Z,9.46
2023-03-18T05:41:10.539Z,9.50
2023-03-18T05:42:10.588Z,9.43
2023-03-18T05:43:11.559Z,9.50
2023-03-18T05:44:10.547Z,9.51
2023-03-18T05:45:10.530Z,9.48
2023-03-18T05:46:10.668Z,9.51
2023-03-18T05:47:10.507Z,9.54
2023-03-18T05:48:10.514Z,9.51
2023-03-18T05:49:11.520Z,9.54
2023-03-18T05:50:10.507Z,9.48
2023-03-18T05:51:10.495Z,9.48
2023-03-18T05:52:10.535Z,9.58
2023-03-18T05:53:10.498Z,9.50
2023-03-18T05:54:10.476Z,9.48
2023-03-18T05:55:11.487Z,9.50
2023-03-18T05:56:10.459Z,9.50
2023-03-18T05:57:10.460Z,9.51
2023-03-18T05:58:10.464Z,9.50
2023-03-18T05:59:10.448Z,9.47
2023-03-18T06:00:10.467Z,9.54
2023-03-18T06:01:11.465Z,9.44
2023-03-18T06:02:10.487Z,9.48
2023-03-18T06:03:10.471Z,9.50
2023-03-18T06:04:10.426Z,9.51
2023-03-18T06:05:10.438Z,9.51
2023-03-18T06:06:10.421Z,9.56
2023-03-18T06:07:11.421Z,9.50
2023-03-18T06:08:10.410Z,9.47
2023-03-18T06:09:10.401Z,9.50
2023-03-18T06:10:10.401Z,9.55
2023-03-18T06:11:10.390Z,9.51
2023-03-18T06:12:10.369Z,9.54
2023-03-18T06:13:11.380Z,9.54
2023-03-18T06:14:10.371Z,9.51
2023-03-18T06:15:10.363Z,9.50
2023-03-18T06:16:10.456Z,9.61
2023-03-18T06:17:10.391Z,9.48
2023-03-18T06:18:10.375Z,9.51
2023-03-18T06:19:11.355Z,9.54
2023-03-18T06:20:10.348Z,9.61
2023-03-18T06:21:10.416Z,9.65
2023-03-18T06:22:10.327Z,9.65
2023-03-18T06:23:10.338Z,9.68
2023-03-18T06:24:10.323Z,9.66
2023-03-18T06:25:11.321Z,9.65
2023-03-18T06:26:10.322Z,9.65
2023-03-18T06:27:10.294Z,9.65
2023-03-18T06:28:10.362Z,9.68
2023-03-18T06:29:10.287Z,9.65
2023-03-18T06:30:10.286Z,9.61
2023-03-18T06:31:11.396Z,9.64
2023-03-18T06:32:10.282Z,9.50
2023-03-18T06:33:10.332Z,9.61
2023-03-18T06:34:10.310Z,9.51
2023-03-18T06:35:10.311Z,9.61
2023-03-18T06:36:10.319Z,9.62
2023-03-18T06:37:11.259Z,9.65
2023-03-18T06:38:10.255Z,9.66
2023-03-18T06:39:10.246Z,9.62
2023-03-18T06:40:10.249Z,9.55
2023-03-18T06:41:10.254Z,9.50
2023-03-18T06:42:10.258Z,9.61
2023-03-18T06:43:11.235Z,9.64
2023-03-18T06:44:10.206Z,9.54
2023-03-18T06:45:10.215Z,9.65
2023-03-18T06:46:10.295Z,9.62
2023-03-18T06:47:10.207Z,9.61
2023-03-18T06:48:10.191Z,9.54
2023-03-18T06:49:11.205Z,9.58
2023-03-18T06:50:10.194Z,9.68
2023-03-18T06:51:10.198Z,9.64
2023-03-18T06:52:10.182Z,9.66
2023-03-18T06:53:10.162Z,9.65
2023-03-18T06:54:10.190Z,9.66
2023-03-18T06:55:11.165Z,9.65
2023-03-18T06:56:10.138Z,9.68
2023-03-18T06:57:10.141Z,9.72
2023-03-18T06:58:10.201Z,9.69
2023-03-18T06:59:10.149Z,9.68
2023-03-18T07:00:10.129Z,9.76
2023-03-18T07:01:11.166Z,9.80
2023-03-18T07:02:10.112Z,9.65
2023-03-18T07:03:10.106Z,9.72
2023-03-18T07:04:10.135Z,9.72
2023-03-18T07:05:10.120Z,9.69
2023-03-18T07:06:10.100Z,9.74
2023-03-18T07:07:11.127Z,9.76
2023-03-18T07:08:10.113Z,9.79
2023-03-18T07:09:10.077Z,9.80
2023-03-18T07:10:10.076Z,9.79
2023-03-18T07:11:10.069Z,9.86
2023-03-18T07:12:10.064Z,9.92
2023-03-18T07:13:11.074Z,9.84
2023-03-18T07:14:10.061Z,9.82
2023-03-18T07:15:10.073Z,9.83
2023-03-18T07:16:10.111Z,9.84
2023-03-18T07:17:10.041Z,9.87
2023-03-18T07:18:12.059Z,9.99
2023-03-18T07:19:11.046Z,9.98
2023-03-18T07:20:10.020Z,9.92
2023-03-18T07:21:10.018Z,9.97
2023-03-18T07:22:10.023Z,10.04
2023-03-18T07:23:10.014Z,10.01
2023-03-18T07:24:10.023Z,10.01
2023-03-18T07:25:11.034Z,10.07
2023-03-18T07:26:10.006Z,10.17
2023-03-18T07:27:09.993Z,10.17
2023-03-18T07:28:09.998Z,10.16
2023-03-18T07:29:10.000Z,10.22
2023-03-18T07:30:10.044Z,10.35
2023-03-18T07:31:11.069Z,10.26
2023-03-18T07:32:10.015Z,10.35
2023-03-18T07:33:10.093Z,10.48
2023-03-18T07:34:10.025Z,10.56
2023-03-18T07:35:09.979Z,10.71
2023-03-18T07:36:10.091Z,10.81
2023-03-18T07:37:10.980Z,10.78
2023-03-18T07:38:09.949Z,10.92
2023-03-18T07:39:09.964Z,10.96
2023-03-18T07:40:09.945Z,11.07
2023-03-18T07:41:09.960Z,11.08
2023-03-18T07:42:09.982Z,11.25
2023-03-18T07:43:10.987Z,11.33
2023-03-18T07:44:09.959Z,11.37
2023-03-18T07:45:09.959Z,11.36
2023-03-18T07:46:09.972Z,11.54
2023-03-18T07:47:09.972Z,11.62
2023-03-18T07:48:09.934Z,11.66
2023-03-18T07:49:10.942Z,11.65
2023-03-18T07:50:09.960Z,11.57
2023-03-18T07:51:09.956Z,11.75
2023-03-18T07:52:09.931Z,11.81
2023-03-18T07:53:09.941Z,11.97
2023-03-18T07:54:09.954Z,12.15
2023-03-18T07:55:10.947Z,12.28
2023-03-18T07:56:09.951Z,12.39
2023-03-18T07:57:09.988Z,12.55
2023-03-18T07:58:09.931Z,12.62
2023-03-18T07:59:09.934Z,12.97
2023-03-18T08:00:09.928Z,13.08
2023-03-18T08:01:10.948Z,13.22
2023-03-18T08:02:09.976Z,13.27
2023-03-18T08:03:09.946Z,13.41
2023-03-18T08:04:09.999Z,13.37
2023-03-18T08:05:10.018Z,13.50
2023-03-18T08:06:10.003Z,13.47
2023-03-18T08:07:10.983Z,13.53
2023-03-18T08:08:09.968Z,13.62
2023-03-18T08:09:10.031Z,13.68
2023-03-18T08:10:09.963Z,13.63
2023-03-18T08:11:09.974Z,13.83
2023-03-18T08:12:09.966Z,13.93
2023-03-18T08:13:11.024Z,14.22
2023-03-18T08:14:10.005Z,14.55
2023-03-18T08:15:10.000Z,14.81
2023-03-18T08:16:10.065Z,15.07
2023-03-18T08:17:10.001Z,15.31
2023-03-18T08:18:10.014Z,15.44
2023-03-18T08:19:11.050Z,15.68
2023-03-18T08:20:10.086Z,15.76
2023-03-18T08:21:10.035Z,15.95
2023-03-18T08:22:10.032Z,16.09
2023-03-18T08:23:10.048Z,16.38
2023-03-18T08:24:10.040Z,16.50
2023-03-18T08:25:11.066Z,16.56
2023-03-18T08:26:10.073Z,16.61
2023-03-18T08:27:10.079Z,16.66
2023-03-18T08:28:10.072Z,16.68
2023-03-18T08:29:10.183Z,16.68
2023-03-18T08:30:10.161Z,16.79
2023-03-18T08:31:11.200Z,16.84
2023-03-18T08:32:10.101Z,16.76
2023-03-18T08:33:10.260Z,16.69
2023-03-18T08:34:10.220Z,16.64
2023-03-18T08:35:10.136Z,16.54
2023-03-18T08:36:10.211Z,16.56
2023-03-18T08:37:11.170Z,16.53
2023-03-18T08:38:10.179Z,16.58
2023-03-18T08:39:10.154Z,16.54
2023-03-18T08:40:10.198Z,16.54
2023-03-18T08:41:10.205Z,16.61
2023-03-18T08:42:10.222Z,16.60
2023-03-18T08:43:11.222Z,16.47
2023-03-18T08:44:10.274Z,16.32
2023-03-18T08:45:10.246Z,16.31
2023-03-18T08:46:10.268Z,16.29
2023-03-18T08:47:10.240Z,16.20
2023-03-18T08:48:10.288Z,16.05
2023-03-18T08:49:11.347Z,16.23
2023-03-18T08:50:10.258Z,16.05
2023-03-18T08:51:10.265Z,16.08
2023-03-18T08:52:10.254Z,16.01
2023-03-18T08:53:10.267Z,15.84
2023-03-18T08:54:10.272Z,15.72
2023-03-18T08:55:11.351Z,15.49
2023-03-18T08:56:10.275Z,15.36
2023-03-18T08:57:10.307Z,15.28
2023-03-18T08:58:10.301Z,15.18
2023-03-18T08:59:10.327Z,15.10
2023-03-18T09:00:10.286Z,14.99
2023-03-18T09:01:12.080Z,14.97
2023-03-18T09:02:10.309Z,14.88
2023-03-18T09:03:10.450Z,14.84
2023-03-18T09:04:10.325Z,14.65
2023-03-18T09:05:10.287Z,14.62
2023-03-18T09:06:10.356Z,14.54
2023-03-18T09:07:11.305Z,14.59
2023-03-18T09:08:10.299Z,14.50
2023-03-18T09:09:10.286Z,14.35
2023-03-18T09:10:10.291Z,14.45
2023-03-18T09:11:10.382Z,14.35
2023-03-18T09:12:10.292Z,14.32
2023-03-18T09:13:11.348Z,14.36
2023-03-18T09:14:10.487Z,14.26
2023-03-18T09:15:10.314Z,14.30
2023-03-18T09:16:10.300Z,14.23
2023-03-18T09:17:10.331Z,14.29
2023-03-18T09:18:12.170Z,14.33
2023-03-18T09:19:11.305Z,14.37
2023-03-18T09:20:10.292Z,14.50
2023-03-18T09:21:10.292Z,14.54
2023-03-18T09:22:10.307Z,14.65
2023-03-18T09:23:10.347Z,14.77
2023-03-18T09:24:10.284Z,14.68
2023-03-18T09:25:11.300Z,14.81
2023-03-18T09:26:10.289Z,14.72
2023-03-18T09:27:10.314Z,14.72
2023-03-18T09:28:10.306Z,14.59
2023-03-18T09:29:10.301Z,14.59
2023-03-18T09:30:10.286Z,14.53
2023-03-18T09:31:11.334Z,14.63
2023-03-18T09:32:10.341Z,14.53
2023-03-18T09:33:10.386Z,14.48
2023-03-18T09:34:10.275Z,14.58
2023-03-18T09:35:13.032Z,14.50
2023-03-18T09:36:10.337Z,14.55
2023-03-18T09:37:11.293Z,14.58
2023-03-18T09:38:10.288Z,14.59
2023-03-18T09:39:10.301Z,14.54
2023-03-18T09:40:10.304Z,14.55
2023-03-18T09:41:10.280Z,14.66
2023-03-18T09:42:10.302Z,14.55
2023-03-18T09:43:11.290Z,14.62
2023-03-18T09:44:10.288Z,14.53
2023-03-18T09:45:10.284Z,14.45
2023-03-18T09:46:10.392Z,14.53
2023-03-18T09:47:10.525Z,14.48
2023-03-18T09:48:10.267Z,14.53
2023-03-18T09:49:11.366Z,14.48
2023-03-18T09:50:10.262Z,14.60
2023-03-18T09:51:10.286Z,14.51
2023-03-18T09:52:10.274Z,14.55
2023-03-18T09:53:10.278Z,14.66
2023-03-18T09:54:10.262Z,14.65
2023-03-18T09:55:11.269Z,14.68
2023-03-18T09:56:10.286Z,14.78
2023-03-18T09:57:10.292Z,14.85
2023-03-18T09:58:10.253Z,14.96
2023-03-18T09:59:10.270Z,15.10
2023-03-18T10:00:10.286Z,15.21
2023-03-18T10:01:11.286Z,15.36
2023-03-18T10:02:10.268Z,15.47
2023-03-18T10:03:10.326Z,15.49
2023-03-18T10:04:10.362Z,15.58
2023-03-18T10:05:10.265Z,15.76
2023-03-18T10:06:10.245Z,15.76
2023-03-18T10:07:11.254Z,15.79
2023-03-18T10:08:10.268Z,15.84
2023-03-18T10:09:10.275Z,15.79
2023-03-18T10:10:10.263Z,15.83
2023-03-18T10:11:10.305Z,15.79
2023-03-18T10:12:10.257Z,15.72
2023-03-18T10:13:11.252Z,15.73
2023-03-18T10:14:10.257Z,15.67
2023-03-18T10:15:10.268Z,15.57
2023-03-18T10:16:10.288Z,15.59
2023-03-18T10:17:10.264Z,15.61
2023-03-18T10:18:10.269Z,15.64
2023-03-18T10:19:11.263Z,15.67
2023-03-18T10:20:10.261Z,15.61
2023-03-18T10:21:10.253Z,15.64
2023-03-18T10:22:10.269Z,15.62
2023-03-18T10:23:10.267Z,15.57
2023-03-18T10:24:10.251Z,15.54
2023-03-18T10:25:11.263Z,15.52
2023-03-18T10:26:10.267Z,15.58
2023-03-18T10:27:10.238Z,15.49
2023-03-18T10:28:10.263Z,15.55
2023-03-18T10:29:10.270Z,15.54
2023-03-18T10:30:10.288Z,15.57
2023-03-18T10:31:11.305Z,15.52
2023-03-18T10:32:10.247Z,15.47
2023-03-18T10:33:10.270Z,15.44
2023-03-18T10:34:10.255Z,15.51
2023-03-18T10:35:10.221Z,15.49
2023-03-18T10:36:10.337Z,15.40
2023-03-18T10:37:11.254Z,15.35
2023-03-18T10:38:10.261Z,15.36
2023-03-18T10:39:10.247Z,15.43
2023-03-18T10:40:10.262Z,15.37
2023-03-18T10:41:10.226Z,15.22
2023-03-18T10:42:10.250Z,15.27
2023-03-18T10:43:11.286Z,15.33
2023-03-18T10:44:10.210Z,15.27
2023-03-18T10:45:10.257Z,15.27
2023-03-18T10:46:10.319Z,15.22
2023-03-18T10:47:10.377Z,15.25
2023-03-18T10:48:10.214Z,15.27
2023-03-18T10:49:11.226Z,15.24
2023-03-18T10:50:10.222Z,15.27
2023-03-18T10:51:10.269Z,15.27
2023-03-18T10:52:10.216Z,15.21
2023-03-18T10:53:10.278Z,15.27
2023-03-18T10:54:10.209Z,15.24
2023-03-18T10:55:11.232Z,15.18
2023-03-18T10:56:10.219Z,15.18
2023-03-18T10:57:10.220Z,15.14
2023-03-18T10:58:10.196Z,15.11
2023-03-18T10:59:10.204Z,15.09
2023-03-18T11:00:10.198Z,15.14
2023-03-18T11:01:11.217Z,15.06
2023-03-18T11:02:10.263Z,15.09
2023-03-18T11:03:10.231Z,15.07
2023-03-18T11:04:10.205Z,15.04
2023-03-18T11:05:10.201Z,15.10
2023-03-18T11:06:10.202Z,15.14
2023-03-18T11:07:11.246Z,15.07
2023-03-18T11:08:10.195Z,15.06
2023-03-18T11:09:10.204Z,15.06
2023-03-18T11:10:10.186Z,15.02
2023-03-18T11:11:10.210Z,15.04
2023-03-18T11:12:10.190Z,15.14
2023-03-18T11:13:11.233Z,15.10
2023-03-18T11:14:10.185Z,15.07
2023-03-18T11:15:10.202Z,15.09
2023-03-18T11:16:10.188Z,15.14
2023-03-18T11:17:10.183Z,15.22
2023-03-18T11:18:10.186Z,15.24
2023-03-18T11:19:11.226Z,15.27
2023-03-18T11:20:10.177Z,15.28
2023-03-18T11:21:10.178Z,15.27
2023-03-18T11:22:10.263Z,15.31
2023-03-18T11:23:10.184Z,15.31
2023-03-18T11:24:10.203Z,15.36
2023-03-18T11:25:11.190Z,15.29
2023-03-18T11:26:10.177Z,15.29
2023-03-18T11:27:10.182Z,15.36
2023-03-18T11:28:10.170Z,15.29
2023-03-18T11:29:10.166Z,15.35
2023-03-18T11:30:10.179Z,15.28
2023-03-18T11:31:11.226Z,15.36
2023-03-18T11:32:10.177Z,15.36
2023-03-18T11:33:10.316Z,15.39
2023-03-18T11:34:10.183Z,15.39
2023-03-18T11:35:10.198Z,15.40
2023-03-18T11:36:10.174Z,15.37
2023-03-18T11:37:11.175Z,15.39
2023-03-18T11:38:10.178Z,15.42
2023-03-18T11:39:10.166Z,15.37
2023-03-18T11:40:10.166Z,15.36
2023-03-18T11:41:10.164Z,15.37
2023-03-18T11:42:10.168Z,15.37
2023-03-18T11:43:11.180Z,15.49
2023-03-18T11:44:10.158Z,15.46
2023-03-18T11:45:10.149Z,15.37
2023-03-18T11:46:10.161Z,15.43
2023-03-18T11:47:10.160Z,15.37
2023-03-18T11:48:10.154Z,15.43
2023-03-18T11:49:11.179Z,15.39
2023-03-18T11:50:10.143Z,15.49
2023-03-18T11:51:10.154Z,15.47
2023-03-18T11:52:10.149Z,15.49
2023-03-18T11:53:10.159Z,15.49
2023-03-18T11:54:10.140Z,15.55
2023-03-18T11:55:11.152Z,15.47
2023-03-18T11:56:10.152Z,15.59
2023-03-18T11:57:10.147Z,15.54
2023-03-18T11:58:10.145Z,15.58
2023-03-18T11:59:10.143Z,15.62
2023-03-18T12:00:10.162Z,15.72
2023-03-18T12:01:11.152Z,15.75
2023-03-18T12:02:10.253Z,15.83
2023-03-18T12:03:10.134Z,15.80
2023-03-18T12:04:10.175Z,15.80
2023-03-18T12:05:10.209Z,15.75
2023-03-18T12:06:10.149Z,15.77
2023-03-18T12:07:11.140Z,15.80
2023-03-18T12:08:10.145Z,15.77
2023-03-18T12:09:10.129Z,15.75
2023-03-18T12:10:10.131Z,15.72
2023-03-18T12:11:10.130Z,15.77
2023-03-18T12:12:10.150Z,15.77
2023-03-18T12:13:11.294Z,15.91
2023-03-18T12:14:10.136Z,15.79
2023-03-18T12:15:10.148Z,15.88
2023-03-18T12:16:10.209Z,15.83
2023-03-18T12:17:10.129Z,15.82
2023-03-18T12:18:10.159Z,15.90
2023-03-18T12:19:11.298Z,15.90
2023-03-18T12:20:10.154Z,15.94
2023-03-18T12:21:10.187Z,15.94
2023-03-18T12:22:10.132Z,15.97
2023-03-18T12:23:10.124Z,15.95
2023-03-18T12:24:10.136Z,15.94
2023-03-18T12:25:11.129Z,16.04
2023-03-18T12:26:10.291Z,15.97
2023-03-18T12:27:10.116Z,15.97
2023-03-18T12:28:10.161Z,15.95
2023-03-18T12:29:10.135Z,15.91
2023-03-18T12:30:10.187Z,15.95
2023-03-18T12:31:11.129Z,16.01
2023-03-18T12:32:10.124Z,15.97
2023-03-18T12:33:10.145Z,16.00
2023-03-18T12:34:10.115Z,16.00
2023-03-18T12:35:10.127Z,16.02
2023-03-18T12:36:10.208Z,16.04
2023-03-18T12:37:11.115Z,16.10
2023-03-18T12:38:10.109Z,16.05
2023-03-18T12:39:10.137Z,16.09
2023-03-18T12:40:10.130Z,16.17
2023-03-18T12:41:10.112Z,16.20
2023-03-18T12:42:10.132Z,16.17
2023-03-18T12:43:11.182Z,16.16
2023-03-18T12:44:10.163Z,16.16
2023-03-18T12:45:10.145Z,16.15
2023-03-18T12:46:10.150Z,16.21
2023-03-18T12:47:10.108Z,16.23
2023-03-18T12:49:11.126Z,16.20
2023-03-18T12:50:10.123Z,16.24
2023-03-18T12:51:10.103Z,16.21
2023-03-18T12:52:10.125Z,16.26
2023-03-18T12:53:10.104Z,16.23
2023-03-18T12:55:12.872Z,16.33
2023-03-18T12:56:12.834Z,16.33
2023-03-18T12:58:16.833Z,16.43
2023-03-18T12:59:16.817Z,16.41
2023-03-18T13:01:20.956Z,16.49
2023-03-18T13:02:20.869Z,16.49
2023-03-18T13:04:13.739Z,16.54
2023-03-18T13:05:13.726Z,16.54
2023-03-18T13:07:18.207Z,16.58
2023-03-18T13:08:17.716Z,16.58
2023-03-18T13:10:21.771Z,16.56
2023-03-18T13:11:21.738Z,16.57
2023-03-18T13:13:25.682Z,16.61
2023-03-18T13:14:25.681Z,16.60